sensor_id;sensor_type;location;lat;lon;timestamp;temperature;humidity
46508;DHT22;32223;53.654;10.014;2022-08-19T00:00:28;20.50;99.90
46508;DHT22;32223;53.654;10.014;2022-08-19T00:02:54;20.60;99.90
46508;DHT22;32223;53.654;10.014;2022-08-19T00:05:21;20.80;99.90
46508;DHT22;32223;53.654;10.014;2022-08-19T00:07:48;20.60;99.90
46508;DHT22;32223;53.654;10.014;2022-08-19T00:10:16;20.60;99.90
46508;DHT22;32223;53.654;10.014;2022-08-19T00:12:42;20.70;99.90
46508;DHT22;32223;53.654;10.014;2022-08-19T00:15:11;20.80;99.90
46508;DHT22;32223;53.654;10.014;2022-08-19T00:17:43;20.90;99.90
46508;DHT22;32223;53.654;10.014;2022-08-19T00:20:12;20.80;99.90
46508;DHT22;32223;53.654;10.014;2022-08-19T00:22:39;20.80;99.90
46508;DHT22;32223;53.654;10.014;2022-08-19T00:25:07;20.90;99.90
46508;DHT22;32223;53.654;10.014;2022-08-19T00:27:33;20.90;99.90
46508;DHT22;32223;53.654;10.014;2022-08-19T00:29:59;20.90;99.90
46508;DHT22;32223;53.654;10.014;2022-08-19T00:32:27;21.00;99.90
46508;DHT22;32223;53.654;10.014;2022-08-19T00:34:53;21.00;99.90
46508;DHT22;32223;53.654;10.014;2022-08-19T00:37:21;20.90;99.90
46508;DHT22;32223;53.654;10.014;2022-08-19T00:39:48;21.00;99.90
46508;DHT22;32223;53.654;10.014;2022-08-19T00:42:14;21.20;99.90
46508;DHT22;32223;53.654;10.014;2022-08-19T00:44:41;21.10;99.90
46508;DHT22;32223;53.654;10.014;2022-08-19T00:47:06;21.10;99.90
46508;DHT22;32223;53.654;10.014;2022-08-19T00:49:44;21.00;99.90
46508;DHT22;32223;53.654;10.014;2022-08-19T00:52:20;21.10;99.90
46508;DHT22;32223;53.654;10.014;2022-08-19T00:54:46;20.90;99.90
46508;DHT22;32223;53.654;10.014;2022-08-19T00:57:17;20.80;99.90
46508;DHT22;32223;53.654;10.014;2022-08-19T00:59:47;20.90;99.90
46508;DHT22;32223;53.654;10.014;2022-08-19T01:02:15;20.90;99.90
46508;DHT22;32223;53.654;10.014;2022-08-19T01:04:40;20.90;99.90
46508;DHT22;32223;53.654;10.014;2022-08-19T01:07:07;20.80;99.90
46508;DHT22;32223;53.654;10.014;2022-08-19T01:09:33;20.90;99.90
46508;DHT22;32223;53.654;10.014;2022-08-19T01:11:59;20.90;99.90
46508;DHT22;32223;53.654;10.014;2022-08-19T01:14:25;20.90;99.90
46508;DHT22;32223;53.654;10.014;2022-08-19T01:16:52;21.00;99.90
46508;DHT22;32223;53.654;10.014;2022-08-19T01:19:28;21.00;99.90
46508;DHT22;32223;53.654;10.014;2022-08-19T01:22:26;21.10;99.90
46508;DHT22;32223;53.654;10.014;2022-08-19T01:24:53;21.00;99.90
46508;DHT22;32223;53.654;10.014;2022-08-19T01:27:18;21.00;99.90
46508;DHT22;32223;53.654;10.014;2022-08-19T01:29:45;20.90;99.90
46508;DHT22;32223;53.654;10.014;2022-08-19T01:32:15;20.80;99.90
46508;DHT22;32223;53.654;10.014;2022-08-19T01:34:41;20.80;99.90
46508;DHT22;32223;53.654;10.014;2022-08-19T01:37:13;20.90;99.90
46508;DHT22;32223;53.654;10.014;2022-08-19T01:39:40;20.90;99.90
46508;DHT22;32223;53.654;10.014;2022-08-19T01:42:08;20.90;99.90
46508;DHT22;32223;53.654;10.014;2022-08-19T01:44:37;20.90;99.90
46508;DHT22;32223;53.654;10.014;2022-08-19T01:47:03;20.90;99.90
46508;DHT22;32223;53.654;10.014;2022-08-19T01:49:29;21.00;99.90
46508;DHT22;32223;53.654;10.014;2022-08-19T01:51:55;21.00;99.90
46508;DHT22;32223;53.654;10.014;2022-08-19T01:54:23;21.00;99.90
46508;DHT22;32223;53.654;10.014;2022-08-19T01:56:51;21.00;99.90
46508;DHT22;32223;53.654;10.014;2022-08-19T01:59:21;20.80;99.90
46508;DHT22;32223;53.654;10.014;2022-08-19T02:01:48;20.90;99.90
46508;DHT22;32223;53.654;10.014;2022-08-19T02:04:14;20.70;99.90
46508;DHT22;32223;53.654;10.014;2022-08-19T02:06:40;20.50;99.90
46508;DHT22;32223;53.654;10.014;2022-08-19T02:09:06;20.50;99.90
46508;DHT22;32223;53.654;10.014;2022-08-19T02:11:34;20.50;99.90
46508;DHT22;32223;53.654;10.014;2022-08-19T02:14:02;20.40;99.90
46508;DHT22;32223;53.654;10.014;2022-08-19T02:16:28;20.50;99.90
46508;DHT22;32223;53.654;10.014;2022-08-19T02:18:54;20.50;99.90
46508;DHT22;32223;53.654;10.014;2022-08-19T02:21:22;20.50;99.90
46508;DHT22;32223;53.654;10.014;2022-08-19T02:23:49;20.50;99.90
46508;DHT22;32223;53.654;10.014;2022-08-19T02:26:16;20.60;99.90
46508;DHT22;32223;53.654;10.014;2022-08-19T02:28:42;20.70;99.90
46508;DHT22;32223;53.654;10.014;2022-08-19T02:31:13;20.60;99.90
46508;DHT22;32223;53.654;10.014;2022-08-19T02:33:40;20.50;99.90
46508;DHT22;32223;53.654;10.014;2022-08-19T02:36:07;20.60;99.90
46508;DHT22;32223;53.654;10.014;2022-08-19T02:38:33;20.70;99.90
46508;DHT22;32223;53.654;10.014;2022-08-19T02:41:02;20.60;99.90
46508;DHT22;32223;53.654;10.014;2022-08-19T02:43:31;20.50;99.90
46508;DHT22;32223;53.654;10.014;2022-08-19T02:45:56;20.50;99.90
46508;DHT22;32223;53.654;10.014;2022-08-19T02:48:24;20.40;99.90
46508;DHT22;32223;53.654;10.014;2022-08-19T02:50:51;20.30;99.90
46508;DHT22;32223;53.654;10.014;2022-08-19T02:53:22;20.30;99.90
46508;DHT22;32223;53.654;10.014;2022-08-19T02:55:49;20.30;99.90
46508;DHT22;32223;53.654;10.014;2022-08-19T02:58:16;20.30;99.90
46508;DHT22;32223;53.654;10.014;2022-08-19T03:00:44;20.30;99.90
46508;DHT22;32223;53.654;10.014;2022-08-19T03:03:10;20.40;99.90
46508;DHT22;32223;53.654;10.014;2022-08-19T03:05:36;20.50;99.90
46508;DHT22;32223;53.654;10.014;2022-08-19T03:08:02;20.50;99.90
46508;DHT22;32223;53.654;10.014;2022-08-19T03:10:28;20.50;99.90
46508;DHT22;32223;53.654;10.014;2022-08-19T03:12:54;20.40;99.90
46508;DHT22;32223;53.654;10.014;2022-08-19T03:15:20;20.20;99.90
46508;DHT22;32223;53.654;10.014;2022-08-19T03:17:45;20.20;99.90
46508;DHT22;32223;53.654;10.014;2022-08-19T03:20:11;20.20;99.90
46508;DHT22;32223;53.654;10.014;2022-08-19T03:22:36;20.20;99.90
46508;DHT22;32223;53.654;10.014;2022-08-19T03:25:03;20.30;99.90
46508;DHT22;32223;53.654;10.014;2022-08-19T03:27:29;20.20;99.90
46508;DHT22;32223;53.654;10.014;2022-08-19T03:29:55;20.20;99.90
46508;DHT22;32223;53.654;10.014;2022-08-19T03:32:20;20.40;99.90
46508;DHT22;32223;53.654;10.014;2022-08-19T03:34:47;20.40;99.90
46508;DHT22;32223;53.654;10.014;2022-08-19T03:37:12;20.30;99.90
46508;DHT22;32223;53.654;10.014;2022-08-19T03:39:39;20.40;99.90
46508;DHT22;32223;53.654;10.014;2022-08-19T03:42:05;20.30;99.90
46508;DHT22;32223;53.654;10.014;2022-08-19T03:44:31;20.30;99.90
46508;DHT22;32223;53.654;10.014;2022-08-19T03:46:59;20.20;99.90
46508;DHT22;32223;53.654;10.014;2022-08-19T03:49:28;20.30;99.90
46508;DHT22;32223;53.654;10.014;2022-08-19T03:51:56;20.30;99.90
46508;DHT22;32223;53.654;10.014;2022-08-19T03:54:24;20.40;99.90
46508;DHT22;32223;53.654;10.014;2022-08-19T03:56:51;20.60;99.90
46508;DHT22;32223;53.654;10.014;2022-08-19T03:59:28;20.50;99.90
46508;DHT22;32223;53.654;10.014;2022-08-19T04:01:56;20.60;99.90
46508;DHT22;32223;53.654;10.014;2022-08-19T04:04:23;20.50;99.90
46508;DHT22;32223;53.654;10.014;2022-08-19T04:06:49;20.40;99.90
46508;DHT22;32223;53.654;10.014;2022-08-19T04:09:15;20.30;99.90
46508;DHT22;32223;53.654;10.014;2022-08-19T04:11:50;20.30;99.90
46508;DHT22;32223;53.654;10.014;2022-08-19T04:14:20;20.30;99.90
46508;DHT22;32223;53.654;10.014;2022-08-19T04:16:47;20.20;99.90
46508;DHT22;32223;53.654;10.014;2022-08-19T04:19:13;20.10;99.90
46508;DHT22;32223;53.654;10.014;2022-08-19T04:21:40;20.00;99.90
46508;DHT22;32223;53.654;10.014;2022-08-19T04:24:06;20.00;99.90
46508;DHT22;32223;53.654;10.014;2022-08-19T04:26:34;20.00;99.90
46508;DHT22;32223;53.654;10.014;2022-08-19T04:29:06;20.00;99.90
46508;DHT22;32223;53.654;10.014;2022-08-19T04:31:32;20.00;99.90
46508;DHT22;32223;53.654;10.014;2022-08-19T04:34:04;20.10;99.90
46508;DHT22;32223;53.654;10.014;2022-08-19T04:36:32;20.20;99.90
46508;DHT22;32223;53.654;10.014;2022-08-19T04:39:05;20.20;99.90
46508;DHT22;32223;53.654;10.014;2022-08-19T04:41:32;20.30;99.90
46508;DHT22;32223;53.654;10.014;2022-08-19T04:44:16;20.50;99.90
46508;DHT22;32223;53.654;10.014;2022-08-19T04:46:47;20.60;99.90
46508;DHT22;32223;53.654;10.014;2022-08-19T04:49:14;20.60;99.90
46508;DHT22;32223;53.654;10.014;2022-08-19T04:51:43;20.60;99.90
46508;DHT22;32223;53.654;10.014;2022-08-19T04:54:09;20.70;99.90
46508;DHT22;32223;53.654;10.014;2022-08-19T04:56:34;20.60;99.90
46508;DHT22;32223;53.654;10.014;2022-08-19T04:59:00;20.50;99.90
46508;DHT22;32223;53.654;10.014;2022-08-19T05:01:30;20.50;99.90
46508;DHT22;32223;53.654;10.014;2022-08-19T05:03:58;20.30;99.90
46508;DHT22;32223;53.654;10.014;2022-08-19T05:06:24;20.40;99.90
46508;DHT22;32223;53.654;10.014;2022-08-19T05:08:51;20.50;99.90
46508;DHT22;32223;53.654;10.014;2022-08-19T05:11:22;20.50;99.90
46508;DHT22;32223;53.654;10.014;2022-08-19T05:13:49;20.40;99.90
46508;DHT22;32223;53.654;10.014;2022-08-19T05:16:16;20.40;99.90
46508;DHT22;32223;53.654;10.014;2022-08-19T05:18:43;20.40;99.90
46508;DHT22;32223;53.654;10.014;2022-08-19T05:21:27;20.40;99.90
46508;DHT22;32223;53.654;10.014;2022-08-19T05:24:13;20.40;99.90
46508;DHT22;32223;53.654;10.014;2022-08-19T05:26:42;20.40;99.90
46508;DHT22;32223;53.654;10.014;2022-08-19T05:29:09;20.40;99.90
46508;DHT22;32223;53.654;10.014;2022-08-19T05:31:36;20.20;99.90
46508;DHT22;32223;53.654;10.014;2022-08-19T05:34:02;20.20;99.90
46508;DHT22;32223;53.654;10.014;2022-08-19T05:36:37;20.20;99.90
46508;DHT22;32223;53.654;10.014;2022-08-19T05:39:05;20.20;99.90
46508;DHT22;32223;53.654;10.014;2022-08-19T05:41:31;20.30;99.90
46508;DHT22;32223;53.654;10.014;2022-08-19T05:43:57;20.30;99.90
46508;DHT22;32223;53.654;10.014;2022-08-19T05:46:23;20.30;99.90
46508;DHT22;32223;53.654;10.014;2022-08-19T05:48:49;20.20;99.90
46508;DHT22;32223;53.654;10.014;2022-08-19T05:51:15;20.20;99.90
46508;DHT22;32223;53.654;10.014;2022-08-19T05:53:41;20.20;99.90
46508;DHT22;32223;53.654;10.014;2022-08-19T05:56:10;20.20;99.90
46508;DHT22;32223;53.654;10.014;2022-08-19T05:58:37;20.30;99.90
46508;DHT22;32223;53.654;10.014;2022-08-19T06:01:04;20.20;99.90
46508;DHT22;32223;53.654;10.014;2022-08-19T06:03:35;20.20;99.90
46508;DHT22;32223;53.654;10.014;2022-08-19T06:06:02;20.10;99.90
46508;DHT22;32223;53.654;10.014;2022-08-19T06:08:28;20.10;99.90
46508;DHT22;32223;53.654;10.014;2022-08-19T06:10:54;20.20;99.90
46508;DHT22;32223;53.654;10.014;2022-08-19T06:13:20;20.30;99.90
46508;DHT22;32223;53.654;10.014;2022-08-19T06:15:46;20.30;99.90
46508;DHT22;32223;53.654;10.014;2022-08-19T06:18:13;20.20;99.90
46508;DHT22;32223;53.654;10.014;2022-08-19T06:20:40;20.20;99.90
46508;DHT22;32223;53.654;10.014;2022-08-19T06:23:05;20.20;99.90
46508;DHT22;32223;53.654;10.014;2022-08-19T06:25:31;20.20;99.90
46508;DHT22;32223;53.654;10.014;2022-08-19T06:27:57;20.30;99.90
46508;DHT22;32223;53.654;10.014;2022-08-19T06:30:22;20.40;99.90
46508;DHT22;32223;53.654;10.014;2022-08-19T06:32:48;20.40;99.90
46508;DHT22;32223;53.654;10.014;2022-08-19T06:35:14;20.40;99.90
46508;DHT22;32223;53.654;10.014;2022-08-19T06:37:40;20.40;99.90
46508;DHT22;32223;53.654;10.014;2022-08-19T06:40:07;20.40;99.90
46508;DHT22;32223;53.654;10.014;2022-08-19T06:42:37;20.60;99.90
46508;DHT22;32223;53.654;10.014;2022-08-19T06:45:06;20.60;99.90
46508;DHT22;32223;53.654;10.014;2022-08-19T06:47:34;20.70;99.90
46508;DHT22;32223;53.654;10.014;2022-08-19T06:50:00;20.80;99.90
46508;DHT22;32223;53.654;10.014;2022-08-19T06:52:32;20.80;99.90
46508;DHT22;32223;53.654;10.014;2022-08-19T06:54:59;20.60;99.90
46508;DHT22;32223;53.654;10.014;2022-08-19T06:57:25;20.70;99.90
46508;DHT22;32223;53.654;10.014;2022-08-19T06:59:51;20.70;99.90
46508;DHT22;32223;53.654;10.014;2022-08-19T07:02:18;20.70;99.90
46508;DHT22;32223;53.654;10.014;2022-08-19T07:04:44;20.70;99.90
46508;DHT22;32223;53.654;10.014;2022-08-19T07:07:13;20.70;99.90
46508;DHT22;32223;53.654;10.014;2022-08-19T07:09:41;20.80;99.90
46508;DHT22;32223;53.654;10.014;2022-08-19T07:12:08;20.80;99.90
46508;DHT22;32223;53.654;10.014;2022-08-19T07:14:36;20.80;99.90
46508;DHT22;32223;53.654;10.014;2022-08-19T07:17:10;20.80;99.90
46508;DHT22;32223;53.654;10.014;2022-08-19T07:19:37;20.70;99.90
46508;DHT22;32223;53.654;10.014;2022-08-19T07:22:05;20.70;99.90
46508;DHT22;32223;53.654;10.014;2022-08-19T07:24:31;20.70;99.90
46508;DHT22;32223;53.654;10.014;2022-08-19T07:27:00;20.60;99.90
46508;DHT22;32223;53.654;10.014;2022-08-19T07:29:29;20.60;99.90
46508;DHT22;32223;53.654;10.014;2022-08-19T07:31:56;20.50;99.90
46508;DHT22;32223;53.654;10.014;2022-08-19T07:34:25;20.40;99.90
46508;DHT22;32223;53.654;10.014;2022-08-19T07:36:52;20.50;99.90
46508;DHT22;32223;53.654;10.014;2022-08-19T07:39:30;20.50;99.90
46508;DHT22;32223;53.654;10.014;2022-08-19T07:41:58;20.70;99.90
46508;DHT22;32223;53.654;10.014;2022-08-19T07:44:24;20.80;99.90
46508;DHT22;32223;53.654;10.014;2022-08-19T07:46:52;20.80;99.90
46508;DHT22;32223;53.654;10.014;2022-08-19T07:49:20;20.90;99.90
46508;DHT22;32223;53.654;10.014;2022-08-19T07:51:52;21.00;99.90
46508;DHT22;32223;53.654;10.014;2022-08-19T07:54:19;21.00;99.90
46508;DHT22;32223;53.654;10.014;2022-08-19T07:56:45;21.00;99.90
46508;DHT22;32223;53.654;10.014;2022-08-19T07:59:11;21.00;99.90
46508;DHT22;32223;53.654;10.014;2022-08-19T08:01:38;21.00;99.90
46508;DHT22;32223;53.654;10.014;2022-08-19T08:04:06;21.20;99.90
46508;DHT22;32223;53.654;10.014;2022-08-19T08:06:52;21.20;99.90
46508;DHT22;32223;53.654;10.014;2022-08-19T08:09:37;21.00;99.90
46508;DHT22;32223;53.654;10.014;2022-08-19T08:14:43;21.10;99.90
46508;DHT22;32223;53.654;10.014;2022-08-19T08:17:10;21.00;99.90
46508;DHT22;32223;53.654;10.014;2022-08-19T08:19:37;21.00;99.90
46508;DHT22;32223;53.654;10.014;2022-08-19T08:22:03;20.90;99.90
46508;DHT22;32223;53.654;10.014;2022-08-19T08:24:31;20.90;99.90
46508;DHT22;32223;53.654;10.014;2022-08-19T08:26:58;20.90;99.90
46508;DHT22;32223;53.654;10.014;2022-08-19T08:29:26;21.10;99.90
46508;DHT22;32223;53.654;10.014;2022-08-19T08:31:53;21.10;99.90
46508;DHT22;32223;53.654;10.014;2022-08-19T08:34:20;21.20;99.90
46508;DHT22;32223;53.654;10.014;2022-08-19T08:36:46;21.30;99.90
46508;DHT22;32223;53.654;10.014;2022-08-19T08:39:15;21.10;99.90
46508;DHT22;32223;53.654;10.014;2022-08-19T08:44:36;21.20;99.90
46508;DHT22;32223;53.654;10.014;2022-08-19T08:47:09;21.30;99.90
46508;DHT22;32223;53.654;10.014;2022-08-19T08:52:13;21.40;99.90
46508;DHT22;32223;53.654;10.014;2022-08-19T08:54:44;21.30;99.90
46508;DHT22;32223;53.654;10.014;2022-08-19T08:57:21;21.30;99.90
46508;DHT22;32223;53.654;10.014;2022-08-19T08:59:50;21.30;99.90
46508;DHT22;32223;53.654;10.014;2022-08-19T09:02:18;21.20;99.90
46508;DHT22;32223;53.654;10.014;2022-08-19T09:04:44;21.30;99.90
46508;DHT22;32223;53.654;10.014;2022-08-19T09:09:50;21.30;99.90
46508;DHT22;32223;53.654;10.014;2022-08-19T09:14:52;21.20;99.90
46508;DHT22;32223;53.654;10.014;2022-08-19T09:17:24;21.30;99.90
46508;DHT22;32223;53.654;10.014;2022-08-19T09:20:20;21.30;99.90
46508;DHT22;32223;53.654;10.014;2022-08-19T09:22:47;21.30;99.90
46508;DHT22;32223;53.654;10.014;2022-08-19T09:25:16;21.40;99.90
46508;DHT22;32223;53.654;10.014;2022-08-19T09:27:43;21.40;99.90
46508;DHT22;32223;53.654;10.014;2022-08-19T09:30:15;21.50;99.90
46508;DHT22;32223;53.654;10.014;2022-08-19T09:32:42;21.50;99.90
46508;DHT22;32223;53.654;10.014;2022-08-19T09:35:09;21.40;99.90
46508;DHT22;32223;53.654;10.014;2022-08-19T09:37:35;21.50;99.90
46508;DHT22;32223;53.654;10.014;2022-08-19T09:40:01;21.60;99.90
46508;DHT22;32223;53.654;10.014;2022-08-19T09:42:27;21.70;99.90
46508;DHT22;32223;53.654;10.014;2022-08-19T09:44:52;21.70;99.90
46508;DHT22;32223;53.654;10.014;2022-08-19T09:47:18;21.80;99.90
46508;DHT22;32223;53.654;10.014;2022-08-19T09:49:43;21.80;99.90
46508;DHT22;32223;53.654;10.014;2022-08-19T09:52:10;21.80;99.90
46508;DHT22;32223;53.654;10.014;2022-08-19T09:54:37;21.80;99.90
46508;DHT22;32223;53.654;10.014;2022-08-19T09:57:03;21.80;99.90
46508;DHT22;32223;53.654;10.014;2022-08-19T09:59:29;21.70;99.90
46508;DHT22;32223;53.654;10.014;2022-08-19T10:01:55;21.60;99.90
46508;DHT22;32223;53.654;10.014;2022-08-19T10:04:21;21.50;99.90
46508;DHT22;32223;53.654;10.014;2022-08-19T10:06:48;21.60;99.90
46508;DHT22;32223;53.654;10.014;2022-08-19T10:09:17;21.60;99.90
46508;DHT22;32223;53.654;10.014;2022-08-19T10:11:44;21.70;99.90
46508;DHT22;32223;53.654;10.014;2022-08-19T10:14:15;21.80;99.90
46508;DHT22;32223;53.654;10.014;2022-08-19T10:16:42;21.90;99.90
46508;DHT22;32223;53.654;10.014;2022-08-19T10:19:09;21.90;99.90
46508;DHT22;32223;53.654;10.014;2022-08-19T10:21:35;21.90;99.90
46508;DHT22;32223;53.654;10.014;2022-08-19T10:24:03;22.00;99.90
46508;DHT22;32223;53.654;10.014;2022-08-19T10:26:33;22.00;99.90
46508;DHT22;32223;53.654;10.014;2022-08-19T10:28:59;22.00;99.90
46508;DHT22;32223;53.654;10.014;2022-08-19T10:31:28;22.00;99.90
46508;DHT22;32223;53.654;10.014;2022-08-19T10:33:54;22.10;99.90
46508;DHT22;32223;53.654;10.014;2022-08-19T10:36:25;22.20;99.90
46508;DHT22;32223;53.654;10.014;2022-08-19T10:38:54;22.10;99.90
46508;DHT22;32223;53.654;10.014;2022-08-19T10:41:24;22.00;99.90
46508;DHT22;32223;53.654;10.014;2022-08-19T10:43:52;22.00;99.90
46508;DHT22;32223;53.654;10.014;2022-08-19T10:46:21;21.90;99.90
46508;DHT22;32223;53.654;10.014;2022-08-19T10:48:47;21.70;99.90
46508;DHT22;32223;53.654;10.014;2022-08-19T10:51:13;21.70;99.90
46508;DHT22;32223;53.654;10.014;2022-08-19T10:53:58;21.70;99.90
46508;DHT22;32223;53.654;10.014;2022-08-19T10:56:24;21.70;99.90
46508;DHT22;32223;53.654;10.014;2022-08-19T10:59:09;21.70;99.90
46508;DHT22;32223;53.654;10.014;2022-08-19T11:04:10;21.70;99.90
46508;DHT22;32223;53.654;10.014;2022-08-19T11:06:37;21.70;99.90
46508;DHT22;32223;53.654;10.014;2022-08-19T11:09:04;21.80;99.90
46508;DHT22;32223;53.654;10.014;2022-08-19T11:11:31;21.90;99.90
46508;DHT22;32223;53.654;10.014;2022-08-19T11:13:57;21.90;99.90
46508;DHT22;32223;53.654;10.014;2022-08-19T11:16:25;22.00;99.90
46508;DHT22;32223;53.654;10.014;2022-08-19T11:18:54;22.20;99.90
46508;DHT22;32223;53.654;10.014;2022-08-19T11:21:31;22.30;99.90
46508;DHT22;32223;53.654;10.014;2022-08-19T11:24:00;22.30;99.90
46508;DHT22;32223;53.654;10.014;2022-08-19T11:26:28;22.30;99.90
46508;DHT22;32223;53.654;10.014;2022-08-19T11:28:53;22.40;99.90
46508;DHT22;32223;53.654;10.014;2022-08-19T11:31:22;22.60;99.90
46508;DHT22;32223;53.654;10.014;2022-08-19T11:33:48;22.70;99.90
46508;DHT22;32223;53.654;10.014;2022-08-19T11:36:20;23.00;99.90
46508;DHT22;32223;53.654;10.014;2022-08-19T11:38:49;23.20;99.90
46508;DHT22;32223;53.654;10.014;2022-08-19T11:41:17;23.20;99.90
46508;DHT22;32223;53.654;10.014;2022-08-19T11:43:43;23.30;99.90
46508;DHT22;32223;53.654;10.014;2022-08-19T11:46:11;23.40;99.90
46508;DHT22;32223;53.654;10.014;2022-08-19T11:48:38;23.70;99.90
46508;DHT22;32223;53.654;10.014;2022-08-19T11:51:07;23.90;99.90
46508;DHT22;32223;53.654;10.014;2022-08-19T11:53:35;24.10;99.90
46508;DHT22;32223;53.654;10.014;2022-08-19T11:56:01;24.30;99.90
46508;DHT22;32223;53.654;10.014;2022-08-19T11:58:27;24.50;99.90
46508;DHT22;32223;53.654;10.014;2022-08-19T12:00:53;24.20;99.90
46508;DHT22;32223;53.654;10.014;2022-08-19T12:03:18;24.00;99.90
46508;DHT22;32223;53.654;10.014;2022-08-19T12:05:45;24.00;99.90
46508;DHT22;32223;53.654;10.014;2022-08-19T12:08:11;23.80;99.90
46508;DHT22;32223;53.654;10.014;2022-08-19T12:10:39;23.70;99.90
46508;DHT22;32223;53.654;10.014;2022-08-19T12:13:05;23.60;99.90
46508;DHT22;32223;53.654;10.014;2022-08-19T12:15:38;23.50;99.90
46508;DHT22;32223;53.654;10.014;2022-08-19T12:18:07;23.40;99.90
46508;DHT22;32223;53.654;10.014;2022-08-19T12:20:38;23.40;99.90
46508;DHT22;32223;53.654;10.014;2022-08-19T12:23:06;23.20;99.90
46508;DHT22;32223;53.654;10.014;2022-08-19T12:25:32;23.10;99.90
46508;DHT22;32223;53.654;10.014;2022-08-19T12:28:00;23.00;99.90
46508;DHT22;32223;53.654;10.014;2022-08-19T12:30:26;23.00;99.90
46508;DHT22;32223;53.654;10.014;2022-08-19T12:32:52;23.20;99.90
46508;DHT22;32223;53.654;10.014;2022-08-19T12:35:18;23.20;99.90
46508;DHT22;32223;53.654;10.014;2022-08-19T12:37:46;23.30;99.90
46508;DHT22;32223;53.654;10.014;2022-08-19T12:40:13;23.50;99.90
46508;DHT22;32223;53.654;10.014;2022-08-19T12:42:40;23.70;99.90
46508;DHT22;32223;53.654;10.014;2022-08-19T12:45:10;23.80;99.90
46508;DHT22;32223;53.654;10.014;2022-08-19T12:47:37;24.00;99.90
46508;DHT22;32223;53.654;10.014;2022-08-19T12:50:03;24.00;99.90
46508;DHT22;32223;53.654;10.014;2022-08-19T12:52:29;24.20;99.90
46508;DHT22;32223;53.654;10.014;2022-08-19T12:54:56;24.40;99.90
46508;DHT22;32223;53.654;10.014;2022-08-19T12:57:25;24.60;99.90
46508;DHT22;32223;53.654;10.014;2022-08-19T12:59:54;25.30;99.90
46508;DHT22;32223;53.654;10.014;2022-08-19T13:02:19;26.00;99.90
46508;DHT22;32223;53.654;10.014;2022-08-19T13:04:45;26.20;99.90
46508;DHT22;32223;53.654;10.014;2022-08-19T13:07:11;26.40;99.90
46508;DHT22;32223;53.654;10.014;2022-08-19T13:09:37;26.10;99.90
46508;DHT22;32223;53.654;10.014;2022-08-19T13:12:05;25.80;99.90
46508;DHT22;32223;53.654;10.014;2022-08-19T13:14:34;25.60;99.90
46508;DHT22;32223;53.654;10.014;2022-08-19T13:17:00;25.60;99.90
46508;DHT22;32223;53.654;10.014;2022-08-19T13:19:26;25.50;99.90
46508;DHT22;32223;53.654;10.014;2022-08-19T13:21:52;25.30;99.90
46508;DHT22;32223;53.654;10.014;2022-08-19T13:24:19;25.20;99.90
46508;DHT22;32223;53.654;10.014;2022-08-19T13:26:45;25.00;99.90
46508;DHT22;32223;53.654;10.014;2022-08-19T13:29:11;25.00;99.90
46508;DHT22;32223;53.654;10.014;2022-08-19T13:31:55;24.80;99.90
46508;DHT22;32223;53.654;10.014;2022-08-19T13:34:39;24.70;99.90
46508;DHT22;32223;53.654;10.014;2022-08-19T13:37:04;24.60;99.90
46508;DHT22;32223;53.654;10.014;2022-08-19T13:39:31;24.70;99.90
46508;DHT22;32223;53.654;10.014;2022-08-19T13:41:58;24.70;99.90
46508;DHT22;32223;53.654;10.014;2022-08-19T13:44:25;24.60;99.90
46508;DHT22;32223;53.654;10.014;2022-08-19T13:46:52;24.60;99.90
46508;DHT22;32223;53.654;10.014;2022-08-19T13:49:19;24.60;99.90
46508;DHT22;32223;53.654;10.014;2022-08-19T13:51:45;24.60;99.90
46508;DHT22;32223;53.654;10.014;2022-08-19T13:54:12;24.60;99.90
46508;DHT22;32223;53.654;10.014;2022-08-19T13:56:42;24.60;99.90
46508;DHT22;32223;53.654;10.014;2022-08-19T13:59:09;24.50;99.90
46508;DHT22;32223;53.654;10.014;2022-08-19T14:01:35;24.40;99.90
46508;DHT22;32223;53.654;10.014;2022-08-19T14:04:01;24.30;99.90
46508;DHT22;32223;53.654;10.014;2022-08-19T14:06:27;24.20;99.90
46508;DHT22;32223;53.654;10.014;2022-08-19T14:08:53;24.10;99.90
46508;DHT22;32223;53.654;10.014;2022-08-19T14:11:18;24.20;99.90
46508;DHT22;32223;53.654;10.014;2022-08-19T14:13:45;24.30;99.90
46508;DHT22;32223;53.654;10.014;2022-08-19T14:16:12;24.30;99.90
46508;DHT22;32223;53.654;10.014;2022-08-19T14:18:39;24.30;99.90
46508;DHT22;32223;53.654;10.014;2022-08-19T14:21:06;24.20;99.90
46508;DHT22;32223;53.654;10.014;2022-08-19T14:23:32;24.10;99.90
46508;DHT22;32223;53.654;10.014;2022-08-19T14:26:11;24.10;99.90
46508;DHT22;32223;53.654;10.014;2022-08-19T14:28:38;24.10;99.90
46508;DHT22;32223;53.654;10.014;2022-08-19T14:31:06;24.30;99.90
46508;DHT22;32223;53.654;10.014;2022-08-19T14:33:32;24.30;99.90
46508;DHT22;32223;53.654;10.014;2022-08-19T14:35:58;24.30;99.90
46508;DHT22;32223;53.654;10.014;2022-08-19T14:38:24;24.30;99.90
46508;DHT22;32223;53.654;10.014;2022-08-19T14:40:50;24.10;99.90
46508;DHT22;32223;53.654;10.014;2022-08-19T14:43:17;24.10;99.90
46508;DHT22;32223;53.654;10.014;2022-08-19T14:45:43;24.10;99.90
46508;DHT22;32223;53.654;10.014;2022-08-19T14:48:09;24.00;99.90
46508;DHT22;32223;53.654;10.014;2022-08-19T14:50:35;24.00;99.90
46508;DHT22;32223;53.654;10.014;2022-08-19T14:53:09;23.90;99.90
46508;DHT22;32223;53.654;10.014;2022-08-19T14:55:35;23.90;99.90
46508;DHT22;32223;53.654;10.014;2022-08-19T14:58:01;23.90;99.90
46508;DHT22;32223;53.654;10.014;2022-08-19T15:00:27;24.00;99.90
46508;DHT22;32223;53.654;10.014;2022-08-19T15:02:52;24.00;99.90
46508;DHT22;32223;53.654;10.014;2022-08-19T15:05:20;24.00;99.90
46508;DHT22;32223;53.654;10.014;2022-08-19T15:07:46;24.20;99.90
46508;DHT22;32223;53.654;10.014;2022-08-19T15:10:13;24.10;99.90
46508;DHT22;32223;53.654;10.014;2022-08-19T15:12:39;24.10;99.90
46508;DHT22;32223;53.654;10.014;2022-08-19T15:15:07;24.10;99.90
46508;DHT22;32223;53.654;10.014;2022-08-19T15:17:34;24.10;99.90
46508;DHT22;32223;53.654;10.014;2022-08-19T15:20:04;24.10;99.90
46508;DHT22;32223;53.654;10.014;2022-08-19T15:22:30;24.20;99.90
46508;DHT22;32223;53.654;10.014;2022-08-19T15:24:55;24.20;99.90
46508;DHT22;32223;53.654;10.014;2022-08-19T15:27:21;24.20;99.90
46508;DHT22;32223;53.654;10.014;2022-08-19T15:29:47;24.40;99.90
46508;DHT22;32223;53.654;10.014;2022-08-19T15:32:12;24.50;99.90
46508;DHT22;32223;53.654;10.014;2022-08-19T15:34:38;24.60;99.90